Eko1 — SZIP — position and weather

sailwx.info

Track history (hours):
 
Tides and Currents Weather Stations Pressure Air Temp Water Temp Dewpoint Dewpoint Depression Visibility Wind Speed Wind Dir Waves Ship Positions

Eko1

Last reported at 2017-Nov-23 05:28 UTC. Time now 2017-Nov-23 05:55 UTC.
Position N 38°01' E 023°32'.

Length 90 m; draft 4.4 m.

Type: Ship (hazmat cat A). MMSI: 240718000.

Date/timePositionNaut miles runAvg speedWind from/ knotsBaromVisibWave heightAir tempDewpointWater temp
2017-Nov-23 05:28N 38°01' E 023°32'0 0.0
2017-Nov-23 04:58N 38°01' E 023°32'0 0.0
2017-Nov-23 04:28N 38°01' E 023°32'0 0.0
2017-Nov-23 03:58N 38°01' E 023°32'0 0.0
2017-Nov-23 03:28N 38°01' E 023°32'0 0.0
2017-Nov-23 02:55N 38°01' E 023°32'0 0.0
2017-Nov-23 02:28N 38°01' E 023°32'0 0.1
2017-Nov-23 01:58N 38°01' E 023°32'0 0.0
2017-Nov-23 01:28N 38°01' E 023°32'0 0.1
2017-Nov-23 00:58N 38°01' E 023°32'0 0.2
2017-Nov-23 00:31N 38°02' E 023°32'3 4.7
2017-Nov-22 23:57N 38°02' E 023°36'0 0.0
2017-Nov-22 23:27N 38°02' E 023°36'0 0.0
2017-Nov-22 23:00N 38°02' E 023°36'0 0.0
2017-Nov-22 22:30N 38°02' E 023°36'0 0.0
2017-Nov-22 21:57N 38°02' E 023°36'0 0.0
2017-Nov-22 21:30N 38°02' E 023°36'0 0.0
2017-Nov-22 21:00N 38°02' E 023°36'0 0.0
2017-Nov-22 20:27N 38°02' E 023°36'0 0.0
2017-Nov-22 20:00N 38°02' E 023°36'0 0.0
2017-Nov-22 19:27N 38°02' E 023°36'  
2017-Nov-20 00:30N 38°02' E 023°32'0 0.0
2017-Nov-20 00:00N 38°02' E 023°32'0 0.0
2017-Nov-19 23:30N 38°02' E 023°32'0 0.0
2017-Nov-19 22:57N 38°02' E 023°32'0 0.0
2017-Nov-19 22:30N 38°02' E 023°32'0 0.0
2017-Nov-19 22:00N 38°02' E 023°32'0 0.0
2017-Nov-19 21:30N 38°02' E 023°32'0 0.0
2017-Nov-19 21:00N 38°02' E 023°32'0 0.0
2017-Nov-19 20:30N 38°02' E 023°32'0 0.0
2017-Nov-19 19:57N 38°02' E 023°32'0 0.0
2017-Nov-19 19:27N 38°02' E 023°32'0 0.0
2017-Nov-19 19:01N 38°02' E 023°32'0 0.0
2017-Nov-19 18:30N 38°02' E 023°32'0 0.0
2017-Nov-19 18:00N 38°02' E 023°32'0 0.0
2017-Nov-19 17:30N 38°02' E 023°32'0 0.0
2017-Nov-19 17:01N 38°02' E 023°32'0 0.0
2017-Nov-19 16:31N 38°02' E 023°32'0 0.0
2017-Nov-19 16:00N 38°02' E 023°32'0 0.0
2017-Nov-19 15:30N 38°02' E 023°32'0 0.0
2017-Nov-19 15:00N 38°02' E 023°32'0 0.0
2017-Nov-19 14:30N 38°02' E 023°32'0 0.0
2017-Nov-19 13:58N 38°02' E 023°32'0 0.0
2017-Nov-19 13:28N 38°02' E 023°32'0 0.0
2017-Nov-19 13:00N 38°02' E 023°32'0 0.0
2017-Nov-19 12:28N 38°02' E 023°32'0 0.0
2017-Nov-19 12:01N 38°02' E 023°32'0 0.0
2017-Nov-19 11:22N 38°02' E 023°32'0 0.0
2017-Nov-19 10:57N 38°02' E 023°32'0 0.0
2017-Nov-19 10:31N 38°02' E 023°32'0 0.0
2017-Nov-19 09:58N 38°02' E 023°32'0 0.0
2017-Nov-19 09:27N 38°02' E 023°32'0 0.0
2017-Nov-19 09:01N 38°02' E 023°32'0 0.0
2017-Nov-19 08:30N 38°02' E 023°32'0 0.0
2017-Nov-19 08:01N 38°02' E 023°32'0 0.0
2017-Nov-19 07:28N 38°02' E 023°32'0 0.0
2017-Nov-19 07:01N 38°02' E 023°32'0 0.0
2017-Nov-19 06:28N 38°02' E 023°32'3 6.2
2017-Nov-19 06:00N 37°59' E 023°33'4 8.3
2017-Nov-19 05:30N 37°55' E 023°35'1 1.4
2017-Nov-19 04:58N 37°55' E 023°34'0 0.0
2017-Nov-19 04:28N 37°55' E 023°34'0 0.1
2017-Nov-19 03:58N 37°55' E 023°34'0 0.1
2017-Nov-19 03:25N 37°55' E 023°34'0 0.1
2017-Nov-19 02:58N 37°55' E 023°34'0 0.1
2017-Nov-19 02:13N 37°55' E 023°34'0 0.0
2017-Nov-19 01:46N 37°55' E 023°34'0 0.0
2017-Nov-19 01:28N 37°55' E 023°34'0 0.0
2017-Nov-19 00:58N 37°55' E 023°34'0 0.0
2017-Nov-19 00:28N 37°55' E 023°34'0 0.0
2017-Nov-18 23:58N 37°55' E 023°34'0 0.0
2017-Nov-18 23:19N 37°55' E 023°34'0 0.1
2017-Nov-18 22:58N 37°55' E 023°34'0 0.1
2017-Nov-18 22:25N 37°55' E 023°34'0 0.1
2017-Nov-18 21:58N 37°55' E 023°34'0 0.0
2017-Nov-18 21:28N 37°55' E 023°34'0 1.0
2017-Nov-18 21:00N 37°55' E 023°35'5 9.7
2017-Nov-18 20:30N 37°52' E 023°39'510.8
2017-Nov-18 20:00N 37°47' E 023°42'610.9
2017-Nov-18 19:29N 37°41' E 023°45'60 2.4
2017-Nov-17 18:35N 37°38' E 024°60'110.7
2017-Nov-17 18:29N 37°37' E 025°01'510.4
2017-Nov-17 18:00N 37°33' E 025°05'510.6
2017-Nov-17 17:30N 37°31' E 025°11'511.0
2017-Nov-17 17:00N 37°28' E 025°17'2 3.7
2017-Nov-17 16:28N 37°28' E 025°19'0 0.0
2017-Nov-17 15:58N 37°28' E 025°19'0 0.0
2017-Nov-17 15:28N 37°28' E 025°19'0 0.0
2017-Nov-17 14:58N 37°28' E 025°19'0 0.0
2017-Nov-17 14:28N 37°28' E 025°19'0 0.0
2017-Nov-17 13:58N 37°28' E 025°19'0 0.0
2017-Nov-17 13:28N 37°28' E 025°19'0 0.0
2017-Nov-17 12:58N 37°28' E 025°19'0 0.0
2017-Nov-17 12:28N 37°28' E 025°19'0 0.0
2017-Nov-17 11:58N 37°28' E 025°19'0 0.0
2017-Nov-17 11:28N 37°28' E 025°19'0 0.0
2017-Nov-17 10:58N 37°28' E 025°19'0 0.0
2017-Nov-17 10:28N 37°28' E 025°19'0 0.0
2017-Nov-17 09:58N 37°28' E 025°19'0 0.0
2017-Nov-17 09:28N 37°28' E 025°19'0 0.0
2017-Nov-17 08:58N 37°28' E 025°19'0 0.0
2017-Nov-17 08:28N 37°28' E 025°19'0 0.0
2017-Nov-17 08:00N 37°28' E 025°19'2 3.8
2017-Nov-17 07:30N 37°27' E 025°17'510.7
2017-Nov-17 07:00N 37°21' E 025°17'5 9.7
2017-Nov-17 06:30N 37°17' E 025°14'510.3
2017-Nov-17 06:00N 37°13' E 025°11'510.3
2017-Nov-17 05:30N 37°08' E 025°08'3 0.2
2017-Nov-16 17:18N 37°05' E 025°09'0 0.4
2017-Nov-16 16:53N 37°05' E 025°08'0 0.1
2017-Nov-16 16:28N 37°05' E 025°08'0 0.1
2017-Nov-16 12:09N 37°05' E 025°09'1 8.0
2017-Nov-16 12:00N 37°06' E 025°07'510.8
2017-Nov-16 11:30N 37°11' E 025°05'510.7
2017-Nov-16 11:00N 37°16' E 025°03'510.2
2017-Nov-16 10:30N 37°21' E 025°02'5 9.8
2017-Nov-16 10:00N 37°25' E 024°59'2 3.1
2017-Nov-16 09:20N 37°26' E 024°56'0 0.0
2017-Nov-16 09:00N 37°26' E 024°56'0 0.0
2017-Nov-16 08:30N 37°26' E 024°56'0 0.0
2017-Nov-16 08:00N 37°26' E 024°56'0 0.0
2017-Nov-16 07:30N 37°26' E 024°56'0 0.0
2017-Nov-16 06:56N 37°26' E 024°56'0 0.0
2017-Nov-16 05:27N 37°26' E 024°56'0 0.0
2017-Nov-16 04:29N 37°26' E 024°56'0 0.0
2017-Nov-16 03:45N 37°26' E 024°56'0 0.0
2017-Nov-16 03:30N 37°26' E 024°56'0 0.0
2017-Nov-16 03:00N 37°26' E 024°56'0 0.0
2017-Nov-16 02:23N 37°26' E 024°56'0 0.0
2017-Nov-16 01:43N 37°26' E 024°56'0 0.0
2017-Nov-16 01:24N 37°26' E 024°56'0 0.0
2017-Nov-16 00:47N 37°26' E 024°56'0 0.0
2017-Nov-16 00:29N 37°26' E 024°56'0 0.0
2017-Nov-16 00:01N 37°26' E 024°56'0 0.0
2017-Nov-15 23:15N 37°26' E 024°56'0 0.0
2017-Nov-15 23:00N 37°26' E 024°56'0 0.0
2017-Nov-15 22:29N 37°26' E 024°56'0 0.0
2017-Nov-15 22:01N 37°26' E 024°56'0 0.0
2017-Nov-15 19:47N 37°26' E 024°56'0 0.0
2017-Nov-15 19:23N 37°26' E 024°56'0 0.0
2017-Nov-15 17:53N 37°26' E 024°56'0 0.0
2017-Nov-15 14:28N 37°26' E 024°56'0 0.1
2017-Nov-15 14:00N 37°26' E 024°56'1 2.4
2017-Nov-15 13:29N 37°25' E 024°58'0 0.1
2017-Nov-15 12:59N 37°25' E 024°58'0 0.0
2017-Nov-15 12:29N 37°25' E 024°58'0 0.0
2017-Nov-15 11:59N 37°25' E 024°58'0 0.0
2017-Nov-15 11:29N 37°25' E 024°58'0 0.0
2017-Nov-15 10:59N 37°25' E 024°58'0 0.0
2017-Nov-15 10:29N 37°25' E 024°58'0 0.0
2017-Nov-15 09:59N 37°25' E 024°58'0 0.0
2017-Nov-15 09:29N 37°25' E 024°58'0 0.2
2017-Nov-15 09:00N 37°26' E 024°58'5 9.1
2017-Nov-15 08:30N 37°30' E 024°57'5 9.9
2017-Nov-15 08:00N 37°34' E 024°54'510.0
2017-Nov-15 07:30N 37°38' E 024°51'118 4.1
2017-Nov-14 02:26N 39°33' E 024°12'  
Track history (hours):
 
Tides and Currents Weather Stations Pressure Air Temp Water Temp Dewpoint Dewpoint Depression Visibility Wind Speed Wind Dir Waves Ship Positions

Eko1

Last reported at 2017-Nov-23 05:28 UTC. Time now 2017-Nov-23 05:55 UTC.
Position N 38°01' E 023°32'.

Length 90 m; draft 4.4 m.

Type: Ship (hazmat cat A). MMSI: 240718000.

Date/timePositionNaut miles runAvg speedWind from/ knotsBaromVisibWave heightAir tempDewpointWater temp
2017-Nov-23 05:28N 38°01' E 023°32'0 0.0
2017-Nov-23 04:58N 38°01' E 023°32'0 0.0
2017-Nov-23 04:28N 38°01' E 023°32'0 0.0
2017-Nov-23 03:58N 38°01' E 023°32'0 0.0
2017-Nov-23 03:28N 38°01' E 023°32'0 0.0
2017-Nov-23 02:55N 38°01' E 023°32'0 0.0
2017-Nov-23 02:28N 38°01' E 023°32'0 0.1
2017-Nov-23 01:58N 38°01' E 023°32'0 0.0
2017-Nov-23 01:28N 38°01' E 023°32'0 0.1
2017-Nov-23 00:58N 38°01' E 023°32'0 0.2
2017-Nov-23 00:31N 38°02' E 023°32'3 4.7
2017-Nov-22 23:57N 38°02' E 023°36'0 0.0
2017-Nov-22 23:27N 38°02' E 023°36'0 0.0
2017-Nov-22 23:00N 38°02' E 023°36'0 0.0
2017-Nov-22 22:30N 38°02' E 023°36'0 0.0
2017-Nov-22 21:57N 38°02' E 023°36'0 0.0
2017-Nov-22 21:30N 38°02' E 023°36'0 0.0
2017-Nov-22 21:00N 38°02' E 023°36'0 0.0
2017-Nov-22 20:27N 38°02' E 023°36'0 0.0
2017-Nov-22 20:00N 38°02' E 023°36'0 0.0
2017-Nov-22 19:27N 38°02' E 023°36'  
2017-Nov-20 00:30N 38°02' E 023°32'0 0.0
2017-Nov-20 00:00N 38°02' E 023°32'0 0.0
2017-Nov-19 23:30N 38°02' E 023°32'0 0.0
2017-Nov-19 22:57N 38°02' E 023°32'0 0.0
2017-Nov-19 22:30N 38°02' E 023°32'0 0.0
2017-Nov-19 22:00N 38°02' E 023°32'0 0.0
2017-Nov-19 21:30N 38°02' E 023°32'0 0.0
2017-Nov-19 21:00N 38°02' E 023°32'0 0.0
2017-Nov-19 20:30N 38°02' E 023°32'0 0.0
2017-Nov-19 19:57N 38°02' E 023°32'0 0.0
2017-Nov-19 19:27N 38°02' E 023°32'0 0.0
2017-Nov-19 19:01N 38°02' E 023°32'0 0.0
2017-Nov-19 18:30N 38°02' E 023°32'0 0.0
2017-Nov-19 18:00N 38°02' E 023°32'0 0.0
2017-Nov-19 17:30N 38°02' E 023°32'0 0.0
2017-Nov-19 17:01N 38°02' E 023°32'0 0.0
2017-Nov-19 16:31N 38°02' E 023°32'0 0.0
2017-Nov-19 16:00N 38°02' E 023°32'0 0.0
2017-Nov-19 15:30N 38°02' E 023°32'0 0.0
2017-Nov-19 15:00N 38°02' E 023°32'0 0.0
2017-Nov-19 14:30N 38°02' E 023°32'0 0.0
2017-Nov-19 13:58N 38°02' E 023°32'0 0.0
2017-Nov-19 13:28N 38°02' E 023°32'0 0.0
2017-Nov-19 13:00N 38°02' E 023°32'0 0.0
2017-Nov-19 12:28N 38°02' E 023°32'0 0.0
2017-Nov-19 12:01N 38°02' E 023°32'0 0.0
2017-Nov-19 11:22N 38°02' E 023°32'0 0.0
2017-Nov-19 10:57N 38°02' E 023°32'0 0.0
2017-Nov-19 10:31N 38°02' E 023°32'0 0.0
2017-Nov-19 09:58N 38°02' E 023°32'0 0.0
2017-Nov-19 09:27N 38°02' E 023°32'0 0.0
2017-Nov-19 09:01N 38°02' E 023°32'0 0.0
2017-Nov-19 08:30N 38°02' E 023°32'0 0.0
2017-Nov-19 08:01N 38°02' E 023°32'0 0.0
2017-Nov-19 07:28N 38°02' E 023°32'0 0.0
2017-Nov-19 07:01N 38°02' E 023°32'0 0.0
2017-Nov-19 06:28N 38°02' E 023°32'3 6.2
2017-Nov-19 06:00N 37°59' E 023°33'4 8.3
2017-Nov-19 05:30N 37°55' E 023°35'1 1.4
2017-Nov-19 04:58N 37°55' E 023°34'0 0.0
2017-Nov-19 04:28N 37°55' E 023°34'0 0.1
2017-Nov-19 03:58N 37°55' E 023°34'0 0.1
2017-Nov-19 03:25N 37°55' E 023°34'0 0.1
2017-Nov-19 02:58N 37°55' E 023°34'0 0.1
2017-Nov-19 02:13N 37°55' E 023°34'0 0.0
2017-Nov-19 01:46N 37°55' E 023°34'0 0.0
2017-Nov-19 01:28N 37°55' E 023°34'0 0.0
2017-Nov-19 00:58N 37°55' E 023°34'0 0.0
2017-Nov-19 00:28N 37°55' E 023°34'0 0.0
2017-Nov-18 23:58N 37°55' E 023°34'0 0.0
2017-Nov-18 23:19N 37°55' E 023°34'0 0.1
2017-Nov-18 22:58N 37°55' E 023°34'0 0.1
2017-Nov-18 22:25N 37°55' E 023°34'0 0.1
2017-Nov-18 21:58N 37°55' E 023°34'0 0.0
2017-Nov-18 21:28N 37°55' E 023°34'0 1.0
2017-Nov-18 21:00N 37°55' E 023°35'5 9.7
2017-Nov-18 20:30N 37°52' E 023°39'510.8
2017-Nov-18 20:00N 37°47' E 023°42'610.9
2017-Nov-18 19:29N 37°41' E 023°45'60 2.4
2017-Nov-17 18:35N 37°38' E 024°60'110.7
2017-Nov-17 18:29N 37°37' E 025°01'510.4
2017-Nov-17 18:00N 37°33' E 025°05'510.6
2017-Nov-17 17:30N 37°31' E 025°11'511.0
2017-Nov-17 17:00N 37°28' E 025°17'2 3.7
2017-Nov-17 16:28N 37°28' E 025°19'0 0.0
2017-Nov-17 15:58N 37°28' E 025°19'0 0.0
2017-Nov-17 15:28N 37°28' E 025°19'0 0.0
2017-Nov-17 14:58N 37°28' E 025°19'0 0.0
2017-Nov-17 14:28N 37°28' E 025°19'0 0.0
2017-Nov-17 13:58N 37°28' E 025°19'0 0.0
2017-Nov-17 13:28N 37°28' E 025°19'0 0.0
2017-Nov-17 12:58N 37°28' E 025°19'0 0.0
2017-Nov-17 12:28N 37°28' E 025°19'0 0.0
2017-Nov-17 11:58N 37°28' E 025°19'0 0.0
2017-Nov-17 11:28N 37°28' E 025°19'0 0.0
2017-Nov-17 10:58N 37°28' E 025°19'0 0.0
2017-Nov-17 10:28N 37°28' E 025°19'0 0.0
2017-Nov-17 09:58N 37°28' E 025°19'0 0.0
2017-Nov-17 09:28N 37°28' E 025°19'0 0.0
2017-Nov-17 08:58N 37°28' E 025°19'0 0.0
2017-Nov-17 08:28N 37°28' E 025°19'0 0.0
2017-Nov-17 08:00N 37°28' E 025°19'2 3.8
2017-Nov-17 07:30N 37°27' E 025°17'510.7
2017-Nov-17 07:00N 37°21' E 025°17'5 9.7
2017-Nov-17 06:30N 37°17' E 025°14'510.3
2017-Nov-17 06:00N 37°13' E 025°11'510.3
2017-Nov-17 05:30N 37°08' E 025°08'3 0.2
2017-Nov-16 17:18N 37°05' E 025°09'0 0.4
2017-Nov-16 16:53N 37°05' E 025°08'0 0.1
2017-Nov-16 16:28N 37°05' E 025°08'0 0.1
2017-Nov-16 12:09N 37°05' E 025°09'1 8.0
2017-Nov-16 12:00N 37°06' E 025°07'510.8
2017-Nov-16 11:30N 37°11' E 025°05'510.7
2017-Nov-16 11:00N 37°16' E 025°03'510.2
2017-Nov-16 10:30N 37°21' E 025°02'5 9.8
2017-Nov-16 10:00N 37°25' E 024°59'2 3.1
2017-Nov-16 09:20N 37°26' E 024°56'0 0.0
2017-Nov-16 09:00N 37°26' E 024°56'0 0.0
2017-Nov-16 08:30N 37°26' E 024°56'0 0.0
2017-Nov-16 08:00N 37°26' E 024°56'0 0.0
2017-Nov-16 07:30N 37°26' E 024°56'0 0.0
2017-Nov-16 06:56N 37°26' E 024°56'0 0.0
2017-Nov-16 05:27N 37°26' E 024°56'0 0.0
2017-Nov-16 04:29N 37°26' E 024°56'0 0.0
2017-Nov-16 03:45N 37°26' E 024°56'0 0.0
2017-Nov-16 03:30N 37°26' E 024°56'0 0.0
2017-Nov-16 03:00N 37°26' E 024°56'0 0.0
2017-Nov-16 02:23N 37°26' E 024°56'0 0.0
2017-Nov-16 01:43N 37°26' E 024°56'0 0.0
2017-Nov-16 01:24N 37°26' E 024°56'0 0.0
2017-Nov-16 00:47N 37°26' E 024°56'0 0.0
2017-Nov-16 00:29N 37°26' E 024°56'0 0.0
2017-Nov-16 00:01N 37°26' E 024°56'0 0.0
2017-Nov-15 23:15N 37°26' E 024°56'0 0.0
2017-Nov-15 23:00N 37°26' E 024°56'0 0.0
2017-Nov-15 22:29N 37°26' E 024°56'0 0.0
2017-Nov-15 22:01N 37°26' E 024°56'0 0.0
2017-Nov-15 19:47N 37°26' E 024°56'0 0.0
2017-Nov-15 19:23N 37°26' E 024°56'0 0.0
2017-Nov-15 17:53N 37°26' E 024°56'0 0.0
2017-Nov-15 14:28N 37°26' E 024°56'0 0.1
2017-Nov-15 14:00N 37°26' E 024°56'1 2.4
2017-Nov-15 13:29N 37°25' E 024°58'0 0.1
2017-Nov-15 12:59N 37°25' E 024°58'0 0.0
2017-Nov-15 12:29N 37°25' E 024°58'0 0.0
2017-Nov-15 11:59N 37°25' E 024°58'0 0.0
2017-Nov-15 11:29N 37°25' E 024°58'0 0.0
2017-Nov-15 10:59N 37°25' E 024°58'0 0.0
2017-Nov-15 10:29N 37°25' E 024°58'0 0.0
2017-Nov-15 09:59N 37°25' E 024°58'0 0.0
2017-Nov-15 09:29N 37°25' E 024°58'0 0.2
2017-Nov-15 09:00N 37°26' E 024°58'5 9.1
2017-Nov-15 08:30N 37°30' E 024°57'5 9.9
2017-Nov-15 08:00N 37°34' E 024°54'510.0
2017-Nov-15 07:30N 37°38' E 024°51'118 4.1
2017-Nov-14 02:26N 39°33' E 024°12'  

Dump ship's entire track history